PWSweather.com
Personal Weather Stations
Station Observations
KVAGLENALL
West Henrico, Glen Allen, VA 23060-6503

West HenricoGlen Allen, VA 23060-6503

Lat: 37.6554, Lon: -77.5693

Elevation: 273

Station Type: Davis Vantage Pro II

www.glenallenweather.com

High Low Average
Temperature 63.0°F17.2°C 47.6°F8.7°C 57.2°F14.0°C
Dew Point 59.5°F15.3°C 46.3°F7.9°C 55.1°F12.8°C
Winds 13.0 mph 20.9 kmh Calm Calm 5.0 mph SW8.0 kmh SW
Wind Gusts 14.1 mph22.7 kmh -- 8.0 mph12.9 kmh
Humidity 96% 85% 93%
Pressure 30.13 in1020.3 mb 29.87 in1011.5 mb -
Precipitation 0.00 in0.0 mm - -
Hour Temp Dew Point Humidity Winds Wind Gusts Pressure Precip Precip Rate Daily Precip Total
12:30 AM 55.4°F13.0°C 53.7°F12.1°C 94% 5.0 mph SW8.0 kmh SW 14.1 mph22.7 kmh 29.89 in1012.2 mb 0.00 in0.0 mm 0.00 in0.0 mm 0.00 in0.0 mm
01:30 AM 56.1°F13.4°C 53.8°F12.1°C 92% 8.0 mph SSW12.9 kmh SSW 13.1 mph21.1 kmh 29.90 in1012.5 mb 0.00 in0.0 mm 0.00 in0.0 mm 0.00 in0.0 mm
02:00 AM 56.5°F13.6°C 54.2°F12.3°C 92% 9.0 mph SW14.5 kmh SW 13.1 mph21.1 kmh 29.89 in1012.2 mb 0.00 in0.0 mm 0.00 in0.0 mm 0.00 in0.0 mm
03:00 AM 57.0°F13.9°C 54.7°F12.6°C 92% 13.0 mph WNW20.9 kmh WNW 13.1 mph21.1 kmh 29.89 in1012.2 mb 0.00 in0.0 mm 0.00 in0.0 mm 0.00 in0.0 mm
04:00 AM 57.4°F14.1°C 55.1°F12.8°C 92% 10.0 mph S16.1 kmh S 12.1 mph19.5 kmh 29.89 in1012.2 mb 0.00 in0.0 mm 0.00 in0.0 mm 0.00 in0.0 mm
05:00 AM 58.0°F14.4°C 55.7°F13.2°C 92% 4.0 mph SSW6.4 kmh SSW 9.1 mph14.6 kmh 29.88 in1011.9 mb 0.00 in0.0 mm 0.00 in0.0 mm 0.00 in0.0 mm
06:00 AM 58.5°F14.7°C 56.2°F13.4°C 92% 6.0 mph S9.7 kmh S 14.1 mph22.7 kmh 29.87 in1011.5 mb 0.00 in0.0 mm 0.00 in0.0 mm 0.00 in0.0 mm
07:00 AM 59.3°F15.2°C 57.0°F13.9°C 92% 8.0 mph SW12.9 kmh SW 8.1 mph13.0 kmh 29.89 in1012.2 mb 0.00 in0.0 mm 0.00 in0.0 mm 0.00 in0.0 mm
08:00 AM 59.9°F15.5°C 57.6°F14.2°C 92% 11.0 mph SSW17.7 kmh SSW 14.1 mph22.7 kmh 29.90 in1012.5 mb 0.00 in0.0 mm 0.00 in0.0 mm 0.00 in0.0 mm
09:00 AM 62.0°F16.7°C 58.7°F14.8°C 89% 5.0 mph SW8.0 kmh SW 6.1 mph9.8 kmh 29.91 in1012.9 mb 0.00 in0.0 mm 0.00 in0.0 mm 0.00 in0.0 mm
10:00 AM 63.0°F17.2°C 59.4°F15.2°C 88% 9.0 mph SW14.5 kmh SW 13.1 mph21.1 kmh 29.90 in1012.5 mb 0.00 in0.0 mm 0.00 in0.0 mm 0.00 in0.0 mm
11:00 AM 62.5°F16.9°C 59.5°F15.3°C 90% 3.0 mph SW4.8 kmh SW 9.1 mph14.6 kmh 29.91 in1012.9 mb 0.00 in0.0 mm 0.00 in0.0 mm 0.00 in0.0 mm
12:00 PM 60.9°F16.1°C 59.2°F15.1°C 94% 2.0 mph W3.2 kmh W 3.0 mph4.8 kmh 29.90 in1012.5 mb 0.06 in1.5 mm 0.00 in0.0 mm 0.06 in1.5 mm
01:00 PM 60.3°F15.7°C 59.2°F15.1°C 96% 7.0 mph SW11.3 kmh SW 13.1 mph21.1 kmh 29.89 in1012.2 mb 0.11 in2.8 mm 0.00 in0.0 mm 0.11 in2.8 mm
02:00 PM 60.2°F15.7°C 58.8°F14.9°C 95% 4.0 mph SW6.4 kmh SW 6.1 mph9.8 kmh 29.88 in1011.9 mb 0.03 in0.8 mm 0.00 in0.0 mm 0.11 in2.8 mm
03:00 PM 60.0°F15.6°C 58.6°F14.8°C 95% 2.0 mph SW3.2 kmh SW 4.0 mph6.4 kmh 29.91 in1012.9 mb 0.01 in0.3 mm 0.00 in0.0 mm 0.11 in2.8 mm
04:00 PM 59.4°F15.2°C 58.3°F14.6°C 96% 1.0 mph SSW1.6 kmh SSW 3.0 mph4.8 kmh 29.92 in1013.2 mb 0.00 in0.0 mm 0.00 in0.0 mm 0.11 in2.8 mm
05:00 PM 58.7°F14.8°C 57.3°F14.1°C 95% 2.0 mph W3.2 kmh W 4.0 mph6.4 kmh 29.95 in1014.2 mb 0.00 in0.0 mm 0.00 in0.0 mm 0.11 in2.8 mm
06:00 PM 57.4°F14.1°C 54.8°F12.7°C 91% 4.0 mph WSW6.4 kmh WSW 4.0 mph6.4 kmh 29.99 in1015.6 mb 0.00 in0.0 mm 0.00 in0.0 mm 0.11 in2.8 mm
07:00 PM 55.1°F12.8°C 50.7°F10.4°C 85% 10.0 mph SW16.1 kmh SW 10.1 mph16.3 kmh 30.04 in1017.3 mb 0.00 in0.0 mm 0.00 in0.0 mm 0.11 in2.8 mm
07:30 PM 53.1°F11.7°C 50.8°F10.4°C 92% 2.0 mph NW3.2 kmh NW 4.0 mph6.4 kmh 30.07 in1018.3 mb 0.03 in0.8 mm 0.06 in1.5 mm 0.14 in3.6 mm
08:30 PM 51.7°F10.9°C 50.0°F10.0°C 94% 1.0 mph SW1.6 kmh SW 2.0 mph3.2 kmh 30.08 in1018.6 mb 0.02 in0.5 mm 0.00 in0.0 mm 0.14 in3.6 mm
09:30 PM 50.7°F10.4°C 49.3°F9.6°C 95% Calm Calm -- 30.09 in1019.0 mb 0.01 in0.3 mm 0.00 in0.0 mm 0.14 in3.6 mm
10:30 PM 49.2°F9.6°C 47.9°F8.8°C 95% 2.0 mph WSW3.2 kmh WSW 4.0 mph6.4 kmh 30.13 in1020.3 mb 0.05 in1.3 mm 0.00 in0.0 mm 0.18 in4.6 mm
11:30 PM 47.6°F8.7°C 46.3°F7.9°C 95% Calm Calm -- 30.13 in1020.3 mb 0.05 in1.3 mm 0.00 in0.0 mm 0.18 in4.6 mm